^^
Station Historical Data
Daily Summary for June 18, 2017 Units:  Metric    English   Both
« Previous Day
Next Day »
Daily Weekly Monthly Yearly Custom
  High: Low: Average:
Temperature: 26.2 °C 7.2 °C 13.6 °C
Dew Point: 2 °C -2.3 °C -0.5 °C
Humidity: 52% 20% 40%
Wind Speed: 13km/h 0km/h 0.6km/h
Wind Gust: 24.1km/h - -
Wind- - NW
Pressure: 1019.2 hPa 1013.1 hPa -
Precipitation: 0 mm    
Historical Graphs
 
 
Tabular Data for June 18, 2017
Time Temperature Dew Point Pressure Wind Wind Speed Wind Gust Humidity Rainfall Rate (Hourly) solar Conditions
00:02 9.2 °C -0.7 °C 1018.2 hPa Calm     50% 0 mm 0.0 W/m2
00:07 9.2 °C -0.4 °C 1018.2 hPa Calm     51% 0 mm 0.0 W/m2
00:12 9.2 °C -0.4 °C 1018.2 hPa Calm     51% 0 mm 0.0 W/m2
00:18 9.1 °C -0.8 °C 1018.2 hPa Calm     50% 0 mm 0.0 W/m2
00:28 9 °C -0.9 °C 1018.2 hPa Calm     50% 0 mm 0.0 W/m2
00:38 8.9 °C -1 °C 1018.2 hPa Calm     50% 0 mm 0.0 W/m2
00:43 8.9 °C -0.7 °C 1018.5 hPa Calm     51% 0 mm 0.0 W/m2
00:48 8.8 °C -1.3 °C 1018.5 hPa Calm     49% 0 mm 0.0 W/m2
00:53 8.7 °C -1.4 °C 1018.5 hPa Calm     49% 0 mm 0.0 W/m2
00:58 8.6 °C -1.5 °C 1018.2 hPa Calm     49% 0 mm 0.0 W/m2
01:04 8.4 °C -1.7 °C 1018.5 hPa Calm     49% 0 mm 0.0 W/m2
01:09 8.3 °C -1.5 °C 1018.5 hPa Calm     50% 0 mm 0.0 W/m2
01:15 8.2 °C -1.3 °C 1018.2 hPa Calm     51% 0 mm 0.0 W/m2
01:20 8.2 °C -1.3 °C 1018.5 hPa Calm     51% 0 mm 0.0 W/m2
01:25 8.3 °C -1.5 °C 1018.5 hPa Calm     50% 0 mm 0.0 W/m2
01:30 8.3 °C -1.8 °C 1018.2 hPa Calm     49% 0 mm 0.0 W/m2
01:35 8.3 °C -1.8 °C 1018.5 hPa Calm     49% 0 mm 0.0 W/m2
01:40 8.4 °C -1.7 °C 1018.5 hPa Calm     49% 0 mm 0.0 W/m2
01:45 8.3 °C -2.1 °C 1018.2 hPa Calm     48% 0 mm 0.0 W/m2
01:50 8.2 °C -1.9 °C 1018.2 hPa Calm     49% 0 mm 0.0 W/m2
01:56 8.1 °C -2 °C 1018.2 hPa Calm     49% 0 mm 0.0 W/m2
02:01 7.9 °C -2.2 °C 1018.2 hPa Calm     49% 0 mm 0.0 W/m2
02:06 7.8 °C -2.3 °C 1018.2 hPa Calm     49% 0 mm 0.0 W/m2
02:11 7.7 °C -2.1 °C 1018.2 hPa Calm     50% 0 mm 0.0 W/m2
02:17 7.7 °C -2.1 °C 1018.2 hPa Calm     50% 0 mm 0.0 W/m2
02:22 7.9 °C -2.2 °C 1018.2 hPa Calm     49% 0 mm 0.0 W/m2
02:28 7.9 °C -1.9 °C 1018.2 hPa Calm     50% 0 mm 0.0 W/m2
02:33 7.7 °C -2.1 °C 1018.2 hPa Calm     50% 0 mm 0.0 W/m2
02:38 7.7 °C -2.3 °C 1018.2 hPa Calm     49% 0 mm 0.0 W/m2
02:43 7.6 °C -2.2 °C 1018.2 hPa Calm     50% 0 mm 0.0 W/m2
02:54 7.5 °C -2.3 °C 1017.8 hPa Calm     50% 0 mm 0.0 W/m2
02:59 7.4 °C -2.3 °C 1017.8 hPa Calm     50% 0 mm 0.0 W/m2
03:04 7.4 °C -2.1 °C 1017.8 hPa Calm     51% 0 mm 0.0 W/m2
03:09 7.6 °C -2.2 °C 1017.8 hPa Calm     50% 0 mm 0.0 W/m2
03:14 7.8 °C -2 °C 1017.8 hPa Calm     50% 0 mm 0.0 W/m2
03:20 8 °C -2.1 °C 1017.8 hPa Calm     49% 0 mm 0.0 W/m2
03:25 8 °C -1.8 °C 1017.8 hPa Calm     50% 0 mm 0.0 W/m2
03:30 8.2 °C -1.6 °C 1017.8 hPa Calm     50% 0 mm 0.0 W/m2
03:35 8.3 °C -1.5 °C 1017.8 hPa Calm     50% 0 mm 0.0 W/m2
03:40 8.4 °C -1.4 °C 1018.2 hPa Calm     50% 0 mm 0.0 W/m2
03:46 8.5 °C -1.9 °C 1018.2 hPa Calm     48% 0 mm 0.0 W/m2
03:51 8.3 °C -1.8 °C 1018.5 hPa Calm     49% 0 mm 0.0 W/m2
03:56 8.6 °C -1.2 °C 1018.5 hPa Calm     50% 0 mm 0.0 W/m2
04:01 8.6 °C -1.5 °C 1018.5 hPa Calm     49% 0 mm 0.0 W/m2
04:07 8.4 °C -1.7 °C 1018.5 hPa Calm     49% 0 mm 0.0 W/m2
04:12 8.3 °C -1.5 °C 1018.5 hPa Calm     50% 0 mm 0.0 W/m2
04:17 8.3 °C -1.5 °C 1018.5 hPa Calm     50% 0 mm 0.0 W/m2
04:22 8.2 °C -1.9 °C 1018.5 hPa Calm     49% 0 mm 0.0 W/m2
04:27 8.1 °C -1.7 °C 1018.5 hPa Calm     50% 0 mm 0.0 W/m2
04:32 8 °C -1.8 °C 1018.5 hPa Calm     50% 0 mm 0.0 W/m2
04:37 7.9 °C -1.9 °C 1018.5 hPa Calm     50% 0 mm 0.0 W/m2
04:47 7.7 °C -1.8 °C 1018.5 hPa Calm     51% 0 mm 0.0 W/m2
04:52 7.8 °C -1.7 °C 1018.5 hPa Calm     51% 0 mm 0.0 W/m2
04:57 8.2 °C -1.6 °C 1018.5 hPa Calm     50% 0 mm 0.0 W/m2
05:03 8.6 °C -1.2 °C 1018.5 hPa Calm     50% 0 mm 0.0 W/m2
05:08 8.8 °C -1.6 °C 1018.5 hPa Calm     48% 0 mm 0.0 W/m2
05:13 8.7 °C -1.7 °C 1018.5 hPa Calm     48% 0 mm 0.0 W/m2
05:23 8.8 °C -1.1 °C 1018.5 hPa Calm     50% 0 mm 0.0 W/m2
05:28 9.3 °C -1.2 °C 1018.5 hPa Calm     48% 0 mm 0.0 W/m2
05:34 9.8 °C -1 °C 1018.5 hPa Calm     47% 0 mm 0.0 W/m2
05:39 9.7 °C -1.4 °C 1018.5 hPa Calm     46% 0 mm 0.0 W/m2
05:45 9.3 °C -1.4 °C 1018.5 hPa Calm     47% 0 mm 0.0 W/m2
05:50 8.7 °C -2 °C 1018.5 hPa Calm     47% 0 mm 0.0 W/m2
05:56 8.3 °C -1.8 °C 1018.5 hPa Calm     49% 0 mm 0.0 W/m2
06:01 7.8 °C -2.3 °C 1018.5 hPa Calm     49% 0 mm 0.0 W/m2
06:06 7.5 °C -2.3 °C 1018.5 hPa Calm     50% 0 mm 0.0 W/m2
06:17 7.2 °C -2 °C 1018.5 hPa Calm     52% 0 mm 0.0 W/m2
06:22 7.3 °C -1.9 °C 1018.5 hPa Calm     52% 0 mm 0.0 W/m2
06:27 7.7 °C -1.8 °C 1018.8 hPa Calm     51% 0 mm 0.0 W/m2
06:32 7.9 °C -1.6 °C 1018.8 hPa Calm     51% 0 mm 0.0 W/m2
06:42 8.2 °C -1.3 °C 1018.8 hPa Calm     51% 0 mm 5.0 W/m2
06:54 8.3 °C -1.8 °C 1018.8 hPa Calm     49% 0 mm 12.0 W/m2
07:08 8.1 °C -1.7 °C 1018.8 hPa Calm     50% 0 mm 18.0 W/m2
07:34 9.8 °C -0.7 °C 1018.8 hPa Calm     48% 0 mm 65.0 W/m2
07:46 10.6 °C -0.8 °C 1019.2 hPa Calm     45% 0 mm 130.0 W/m2
07:51 11.1 °C -0.7 °C 1019.2 hPa Calm     44% 0 mm 148.0 W/m2
07:56 11.8 °C -0.7 °C 1019.2 hPa Calm     42% 0 mm 167.0 W/m2
08:08 13 °C -0.3 °C 1019.2 hPa Calm     40% 0 mm 202.0 W/m2
08:20 13.6 °C -0.5 °C 1018.8 hPa Calm     38% 0 mm 234.0 W/m2
08:35 14.2 °C 0.1 °C 1018.8 hPa Calm     38% 0 mm 276.0 W/m2
08:47 15.6 °C 0.6 °C 1018.8 hPa Calm     36% 0 mm 316.0 W/m2
08:56 16.4 °C 1.3 °C 1018.8 hPa Calm     36% 0 mm 343.0 W/m2
09:06 17 °C 1 °C 1018.8 hPa Calm     34% 0 mm 364.0 W/m2
09:11 17.2 °C 1.2 °C 1018.8 hPa Calm   6.4 km/h 34% 0 mm 378.0 W/m2
09:58 18.4 °C 1 °C 1018.2 hPa WSW 1.4 km/h 8 km/h 31% 0 mm 461.0 W/m2
10:28 19.2 °C 1.2 °C 1018.2 hPa WSW 3.2 km/h 6.4 km/h 30% 0 mm 510.0 W/m2
11:28 20.7 °C 1.5 °C 1017.2 hPa West 1.4 km/h 19.3 km/h 28% 0 mm 561.0 W/m2
11:43 20.9 °C 1.2 °C 1016.8 hPa NW 13 km/h 17.7 km/h 27% 0 mm 566.0 W/m2
12:13 21.9 °C 1.5 °C 1016.1 hPa NW 3.2 km/h 22.5 km/h 26% 0 mm 566.0 W/m2
12:57 23.8 °C 1.4 °C 1015.1 hPa NNW 7.9 km/h 20.9 km/h 23% 0 mm 538.0 W/m2
13:07 24.5 °C 1.4 °C 1014.8 hPa NNW 11.1 km/h 24.1 km/h 22% 0 mm 524.0 W/m2
13:15 24.7 °C 1.6 °C 1014.8 hPa Calm   24.1 km/h 22% 0 mm 513.0 W/m2
13:25 24.8 °C 1.6 °C 1014.4 hPa NNW 9.7 km/h 22.5 km/h 22% 0 mm 499.0 W/m2
13:48 24.9 °C 1.1 °C 1014.1 hPa NNW 7.9 km/h 17.7 km/h 21% 0 mm 469.0 W/m2
14:19 25.4 °C 1.5 °C 1013.8 hPa NNW 9.7 km/h 22.5 km/h 21% 0 mm 410.0 W/m2
14:34 25.6 °C 1.6 °C 1013.8 hPa NNW 7.9 km/h 12.9 km/h 21% 0 mm 380.0 W/m2
15:09 25.8 °C 1.8 °C 1013.4 hPa Calm   17.7 km/h 21% 0 mm 290.0 W/m2
15:19 26.1 °C 1.4 °C 1013.4 hPa Calm   12.9 km/h 20% 0 mm 262.0 W/m2
15:34 26.2 °C 1.5 °C 1013.1 hPa NNW 3.2 km/h 19.3 km/h 20% 0 mm 223.0 W/m2
16:05 26 °C 2 °C 1013.1 hPa Calm   9.7 km/h 21% 0 mm 134.0 W/m2
16:19 26.1 °C 1.4 °C 1013.1 hPa NNW 7.9 km/h 11.3 km/h 20% 0 mm 90.0 W/m2
16:30 25.9 °C 1.9 °C 1013.1 hPa Calm   12.9 km/h 21% 0 mm 65.0 W/m2
16:45 25.4 °C 1.5 °C 1013.1 hPa Calm   9.7 km/h 21% 0 mm 23.0 W/m2
16:58 24.9 °C 1.7 °C 1013.1 hPa Calm     22% 0 mm 9.0 W/m2
17:06 24.4 °C 1.3 °C 1013.1 hPa Calm     22% 0 mm 0.0 W/m2
17:11 24.1 °C 1.7 °C 1013.1 hPa Calm     23% 0 mm 0.0 W/m2
17:17 23.7 °C 1.3 °C 1013.4 hPa Calm     23% 0 mm 0.0 W/m2
17:24 23.2 °C 0.9 °C 1013.4 hPa Calm     23% 0 mm 0.0 W/m2
17:34 22.2 °C 1.2 °C 1013.4 hPa Calm     25% 0 mm 0.0 W/m2
17:40 21.9 °C 1 °C 1013.4 hPa Calm     25% 0 mm 0.0 W/m2
17:50 21.6 °C 0.7 °C 1013.4 hPa Calm     25% 0 mm 0.0 W/m2
18:02 20.9 °C 0.7 °C 1013.8 hPa Calm     26% 0 mm 0.0 W/m2
18:14 20 °C 0.4 °C 1013.8 hPa Calm     27% 0 mm 0.0 W/m2
18:29 19.2 °C 0.2 °C 1014.1 hPa Calm     28% 0 mm 0.0 W/m2
18:44 18.9 °C 0.9 °C 1014.1 hPa Calm     30% 0 mm 0.0 W/m2
19:11 18.7 °C 0.8 °C 1014.1 hPa Calm     30% 0 mm 0.0 W/m2
19:40 17.6 °C 0.3 °C 1014.4 hPa Calm     31% 0 mm 0.0 W/m2
19:55 16.7 °C -0.1 °C 1014.4 hPa Calm     32% 0 mm 0.0 W/m2
20:17 15.9 °C -0.4 °C 1014.4 hPa Calm     33% 0 mm 0.0 W/m2
20:31 15.9 °C 0.1 °C 1014.4 hPa Calm     34% 0 mm 0.0 W/m2
20:40 16.2 °C -0.1 °C 1014.4 hPa Calm     33% 0 mm 0.0 W/m2
20:48 16.3 °C 0.4 °C 1014.4 hPa Calm     34% 0 mm 0.0 W/m2
20:58 16.5 °C 0.6 °C 1014.4 hPa Calm     34% 0 mm 0.0 W/m2
21:04 16.5 °C 0.6 °C 1014.4 hPa Calm     34% 0 mm 0.0 W/m2
21:10 16.7 °C 0.3 °C 1014.4 hPa Calm     33% 0 mm 0.0 W/m2
21:24 16.4 °C 0.1 °C 1014.4 hPa Calm     33% 0 mm 0.0 W/m2
21:41 16 °C 0.1 °C 1014.4 hPa NNW 6.4 km/h 8 km/h 34% 0 mm 0.0 W/m2
21:54 16.1 °C 0.2 °C 1014.4 hPa Calm     34% 0 mm 0.0 W/m2
22:05 16.6 °C 0.7 °C 1014.4 hPa Calm   1.6 km/h 34% 0 mm 0.0 W/m2
22:11 17.2 °C 0.8 °C 1014.4 hPa Calm     33% 0 mm 0.0 W/m2
22:22 17.7 °C 0.8 °C 1014.4 hPa Calm   1.6 km/h 32% 0 mm 0.0 W/m2
22:28 17.9 °C 1 °C 1014.4 hPa Calm   6.4 km/h 32% 0 mm 0.0 W/m2
22:40 17.9 °C 0.5 °C 1014.4 hPa NNW 1.4 km/h 8 km/h 31% 0 mm 0.0 W/m2
22:51 17.7 °C 0.8 °C 1014.4 hPa Calm     32% 0 mm 0.0 W/m2
23:01 17.4 °C 1 °C 1014.4 hPa Calm     33% 0 mm 0.0 W/m2
23:10 17.3 °C 0.9 °C 1014.4 hPa Calm     33% 0 mm 0.0 W/m2
23:20 17.1 °C 0.7 °C 1014.4 hPa Calm     33% 0 mm 0.0 W/m2
23:29 17.6 °C 0.7 °C 1014.4 hPa Calm     32% 0 mm 0.0 W/m2
23:39 16.3 °C 0 °C 1014.4 hPa Calm     33% 0 mm 0.0 W/m2
23:44 15.8 °C 0.4 °C 1014.4 hPa Calm     35% 0 mm 0.0 W/m2
23:49 15.4 °C 0 °C 1014.4 hPa Calm     35% 0 mm 0.0 W/m2
23:59 15.1 °C 0.1 °C 1014.4 hPa Calm     36% 0 mm 0.0 W/m2
Canyon Roadhouse, Fishriver Canyon, Namibia
Compliments of Weather Underground - 2.25 mb